sensor_id;sensor_type;location;lat;lon;timestamp;P1;durP1;ratioP1;P2;durP2;ratioP2
41480;SDS011;27217;51.220;5.308;2023-03-12T00:00:49;25.70;;;4.32;;
41480;SDS011;27217;51.220;5.308;2023-03-12T00:03:15;12.32;;;3.95;;
41480;SDS011;27217;51.220;5.308;2023-03-12T00:05:43;6.70;;;3.22;;
41480;SDS011;27217;51.220;5.308;2023-03-12T00:08:09;12.35;;;3.88;;
41480;SDS011;27217;51.220;5.308;2023-03-12T00:10:37;16.00;;;3.63;;
41480;SDS011;27217;51.220;5.308;2023-03-12T00:13:04;6.75;;;3.20;;
41480;SDS011;27217;51.220;5.308;2023-03-12T00:15:31;5.50;;;3.50;;
41480;SDS011;27217;51.220;5.308;2023-03-12T00:17:59;12.07;;;4.00;;
41480;SDS011;27217;51.220;5.308;2023-03-12T00:20:25;8.25;;;2.53;;
41480;SDS011;27217;51.220;5.308;2023-03-12T00:22:51;12.98;;;3.25;;
41480;SDS011;27217;51.220;5.308;2023-03-12T00:25:17;7.60;;;2.63;;
41480;SDS011;27217;51.220;5.308;2023-03-12T00:27:45;7.50;;;2.80;;
41480;SDS011;27217;51.220;5.308;2023-03-12T00:30:11;11.27;;;2.80;;
41480;SDS011;27217;51.220;5.308;2023-03-12T00:32:38;11.25;;;3.67;;
41480;SDS011;27217;51.220;5.308;2023-03-12T00:35:04;6.07;;;2.63;;
41480;SDS011;27217;51.220;5.308;2023-03-12T00:37:31;7.32;;;3.00;;
41480;SDS011;27217;51.220;5.308;2023-03-12T00:39:57;9.00;;;2.70;;
41480;SDS011;27217;51.220;5.308;2023-03-12T00:42:24;8.18;;;3.25;;
41480;SDS011;27217;51.220;5.308;2023-03-12T00:44:50;13.93;;;3.78;;
41480;SDS011;27217;51.220;5.308;2023-03-12T00:47:16;14.45;;;3.17;;
41480;SDS011;27217;51.220;5.308;2023-03-12T00:49:42;8.13;;;2.40;;
41480;SDS011;27217;51.220;5.308;2023-03-12T00:52:07;7.63;;;2.55;;
41480;SDS011;27217;51.220;5.308;2023-03-12T00:54:33;7.88;;;2.95;;
41480;SDS011;27217;51.220;5.308;2023-03-12T00:56:59;10.43;;;3.38;;
41480;SDS011;27217;51.220;5.308;2023-03-12T00:59:26;10.05;;;3.00;;
41480;SDS011;27217;51.220;5.308;2023-03-12T01:01:52;6.50;;;3.00;;
41480;SDS011;27217;51.220;5.308;2023-03-12T01:04:18;19.10;;;3.95;;
41480;SDS011;27217;51.220;5.308;2023-03-12T01:06:44;11.57;;;3.30;;
41480;SDS011;27217;51.220;5.308;2023-03-12T01:09:11;14.35;;;3.60;;
41480;SDS011;27217;51.220;5.308;2023-03-12T01:11:37;9.35;;;3.55;;
41480;SDS011;27217;51.220;5.308;2023-03-12T01:14:04;10.30;;;3.47;;
41480;SDS011;27217;51.220;5.308;2023-03-12T01:16:32;14.73;;;4.75;;
41480;SDS011;27217;51.220;5.308;2023-03-12T01:18:58;15.25;;;3.70;;
41480;SDS011;27217;51.220;5.308;2023-03-12T01:21:25;14.90;;;4.30;;
41480;SDS011;27217;51.220;5.308;2023-03-12T01:23:52;9.93;;;3.50;;
41480;SDS011;27217;51.220;5.308;2023-03-12T01:26:18;9.75;;;3.90;;
41480;SDS011;27217;51.220;5.308;2023-03-12T01:28:44;15.70;;;4.55;;
41480;SDS011;27217;51.220;5.308;2023-03-12T01:31:11;14.65;;;4.15;;
41480;SDS011;27217;51.220;5.308;2023-03-12T01:33:39;9.70;;;3.97;;
41480;SDS011;27217;51.220;5.308;2023-03-12T01:36:14;17.80;;;3.92;;
41480;SDS011;27217;51.220;5.308;2023-03-12T01:38:46;16.95;;;4.32;;
41480;SDS011;27217;51.220;5.308;2023-03-12T01:41:14;12.15;;;4.32;;
41480;SDS011;27217;51.220;5.308;2023-03-12T01:43:39;12.30;;;4.85;;
41480;SDS011;27217;51.220;5.308;2023-03-12T01:48:48;7.82;;;4.28;;
41480;SDS011;27217;51.220;5.308;2023-03-12T01:51:20;9.55;;;4.40;;
41480;SDS011;27217;51.220;5.308;2023-03-12T01:53:50;8.98;;;4.07;;
41480;SDS011;27217;51.220;5.308;2023-03-12T01:56:20;13.50;;;4.10;;
41480;SDS011;27217;51.220;5.308;2023-03-12T01:58:48;16.55;;;4.93;;
41480;SDS011;27217;51.220;5.308;2023-03-12T02:01:17;13.13;;;4.95;;
41480;SDS011;27217;51.220;5.308;2023-03-12T02:03:46;16.27;;;4.25;;
41480;SDS011;27217;51.220;5.308;2023-03-12T02:06:16;17.70;;;5.00;;
41480;SDS011;27217;51.220;5.308;2023-03-12T02:08:46;14.27;;;4.45;;
41480;SDS011;27217;51.220;5.308;2023-03-12T02:11:13;15.48;;;4.22;;
41480;SDS011;27217;51.220;5.308;2023-03-12T02:13:38;16.45;;;4.38;;
41480;SDS011;27217;51.220;5.308;2023-03-12T02:16:05;17.23;;;4.43;;
41480;SDS011;27217;51.220;5.308;2023-03-12T02:18:31;14.35;;;4.80;;
41480;SDS011;27217;51.220;5.308;2023-03-12T02:26:14;12.85;;;4.70;;
41480;SDS011;27217;51.220;5.308;2023-03-12T02:28:41;11.43;;;3.72;;
41480;SDS011;27217;51.220;5.308;2023-03-12T02:31:11;19.85;;;4.20;;
41480;SDS011;27217;51.220;5.308;2023-03-12T02:33:39;7.75;;;3.40;;
41480;SDS011;27217;51.220;5.308;2023-03-12T02:36:05;12.18;;;3.75;;
41480;SDS011;27217;51.220;5.308;2023-03-12T02:38:34;7.63;;;3.15;;
41480;SDS011;27217;51.220;5.308;2023-03-12T02:41:15;12.75;;;3.90;;
41480;SDS011;27217;51.220;5.308;2023-03-12T02:43:43;9.73;;;3.67;;
41480;SDS011;27217;51.220;5.308;2023-03-12T02:46:13;12.02;;;3.05;;
41480;SDS011;27217;51.220;5.308;2023-03-12T02:48:39;11.32;;;3.70;;
41480;SDS011;27217;51.220;5.308;2023-03-12T02:51:06;9.32;;;3.35;;
41480;SDS011;27217;51.220;5.308;2023-03-12T02:53:32;14.88;;;3.45;;
41480;SDS011;27217;51.220;5.308;2023-03-12T02:55:58;12.68;;;3.60;;
41480;SDS011;27217;51.220;5.308;2023-03-12T02:58:23;7.63;;;3.38;;
41480;SDS011;27217;51.220;5.308;2023-03-12T03:00:49;9.07;;;3.85;;
41480;SDS011;27217;51.220;5.308;2023-03-12T03:03:16;6.03;;;3.33;;
41480;SDS011;27217;51.220;5.308;2023-03-12T03:05:42;5.45;;;3.22;;
41480;SDS011;27217;51.220;5.308;2023-03-12T03:08:07;9.35;;;3.85;;
41480;SDS011;27217;51.220;5.308;2023-03-12T03:10:34;8.52;;;3.35;;
41480;SDS011;27217;51.220;5.308;2023-03-12T03:12:59;10.02;;;3.40;;
41480;SDS011;27217;51.220;5.308;2023-03-12T03:15:25;9.70;;;3.17;;
41480;SDS011;27217;51.220;5.308;2023-03-12T03:17:52;8.60;;;3.13;;
41480;SDS011;27217;51.220;5.308;2023-03-12T03:20:18;8.50;;;3.20;;
41480;SDS011;27217;51.220;5.308;2023-03-12T03:22:45;14.60;;;3.33;;
41480;SDS011;27217;51.220;5.308;2023-03-12T03:25:11;6.68;;;2.58;;
41480;SDS011;27217;51.220;5.308;2023-03-12T03:27:37;15.40;;;3.28;;
41480;SDS011;27217;51.220;5.308;2023-03-12T03:30:03;6.75;;;2.53;;
41480;SDS011;27217;51.220;5.308;2023-03-12T03:32:30;19.52;;;4.03;;
41480;SDS011;27217;51.220;5.308;2023-03-12T03:34:56;7.55;;;2.92;;
41480;SDS011;27217;51.220;5.308;2023-03-12T03:37:22;16.77;;;3.53;;
41480;SDS011;27217;51.220;5.308;2023-03-12T03:39:47;9.75;;;3.08;;
41480;SDS011;27217;51.220;5.308;2023-03-12T03:42:14;13.80;;;3.50;;
41480;SDS011;27217;51.220;5.308;2023-03-12T03:44:39;6.57;;;2.88;;
41480;SDS011;27217;51.220;5.308;2023-03-12T03:47:05;10.07;;;2.97;;
41480;SDS011;27217;51.220;5.308;2023-03-12T03:49:32;10.43;;;2.88;;
41480;SDS011;27217;51.220;5.308;2023-03-12T03:51:58;8.98;;;2.78;;
41480;SDS011;27217;51.220;5.308;2023-03-12T03:54:24;7.97;;;3.17;;
41480;SDS011;27217;51.220;5.308;2023-03-12T03:56:49;12.20;;;2.92;;
41480;SDS011;27217;51.220;5.308;2023-03-12T03:59:15;12.65;;;3.00;;
41480;SDS011;27217;51.220;5.308;2023-03-12T04:01:41;5.95;;;2.67;;
41480;SDS011;27217;51.220;5.308;2023-03-12T04:04:06;9.15;;;2.95;;
41480;SDS011;27217;51.220;5.308;2023-03-12T04:06:32;9.50;;;2.85;;
41480;SDS011;27217;51.220;5.308;2023-03-12T04:08:58;8.00;;;3.10;;
41480;SDS011;27217;51.220;5.308;2023-03-12T04:11:24;9.73;;;2.53;;
41480;SDS011;27217;51.220;5.308;2023-03-12T04:13:50;12.43;;;3.58;;
41480;SDS011;27217;51.220;5.308;2023-03-12T04:16:16;12.52;;;3.40;;
41480;SDS011;27217;51.220;5.308;2023-03-12T04:18:42;7.93;;;3.00;;
41480;SDS011;27217;51.220;5.308;2023-03-12T04:21:09;10.10;;;3.38;;
41480;SDS011;27217;51.220;5.308;2023-03-12T04:23:37;15.80;;;3.25;;
41480;SDS011;27217;51.220;5.308;2023-03-12T04:26:03;13.38;;;3.42;;
41480;SDS011;27217;51.220;5.308;2023-03-12T04:28:30;10.05;;;4.00;;
41480;SDS011;27217;51.220;5.308;2023-03-12T04:30:57;17.42;;;3.72;;
41480;SDS011;27217;51.220;5.308;2023-03-12T04:33:32;13.68;;;3.83;;
41480;SDS011;27217;51.220;5.308;2023-03-12T04:36:00;13.10;;;4.43;;
41480;SDS011;27217;51.220;5.308;2023-03-12T04:38:26;7.35;;;3.50;;
41480;SDS011;27217;51.220;5.308;2023-03-12T04:40:59;16.92;;;4.63;;
41480;SDS011;27217;51.220;5.308;2023-03-12T04:43:27;18.00;;;5.35;;
41480;SDS011;27217;51.220;5.308;2023-03-12T04:45:54;8.70;;;3.42;;
41480;SDS011;27217;51.220;5.308;2023-03-12T04:48:20;11.52;;;3.70;;
41480;SDS011;27217;51.220;5.308;2023-03-12T04:50:46;10.48;;;4.05;;
41480;SDS011;27217;51.220;5.308;2023-03-12T04:53:13;13.73;;;4.35;;
41480;SDS011;27217;51.220;5.308;2023-03-12T04:55:38;12.77;;;4.88;;
41480;SDS011;27217;51.220;5.308;2023-03-12T04:58:04;10.60;;;4.22;;
41480;SDS011;27217;51.220;5.308;2023-03-12T05:00:30;14.73;;;5.03;;
41480;SDS011;27217;51.220;5.308;2023-03-12T05:02:56;13.80;;;4.40;;
41480;SDS011;27217;51.220;5.308;2023-03-12T05:05:22;27.20;;;4.75;;
41480;SDS011;27217;51.220;5.308;2023-03-12T05:07:48;11.30;;;4.20;;
41480;SDS011;27217;51.220;5.308;2023-03-12T05:10:14;19.33;;;4.75;;
41480;SDS011;27217;51.220;5.308;2023-03-12T05:12:41;12.35;;;5.55;;
41480;SDS011;27217;51.220;5.308;2023-03-12T05:15:07;18.63;;;5.78;;
41480;SDS011;27217;51.220;5.308;2023-03-12T05:17:33;12.73;;;4.88;;
41480;SDS011;27217;51.220;5.308;2023-03-12T05:19:59;16.45;;;5.45;;
41480;SDS011;27217;51.220;5.308;2023-03-12T05:22:25;14.52;;;4.80;;
41480;SDS011;27217;51.220;5.308;2023-03-12T05:24:50;13.90;;;5.10;;
41480;SDS011;27217;51.220;5.308;2023-03-12T05:27:16;17.33;;;4.88;;
41480;SDS011;27217;51.220;5.308;2023-03-12T05:29:43;8.43;;;4.28;;
41480;SDS011;27217;51.220;5.308;2023-03-12T05:32:09;14.75;;;4.85;;
41480;SDS011;27217;51.220;5.308;2023-03-12T05:34:35;11.60;;;4.68;;
41480;SDS011;27217;51.220;5.308;2023-03-12T05:37:01;13.50;;;4.68;;
41480;SDS011;27217;51.220;5.308;2023-03-12T05:39:27;23.67;;;5.50;;
41480;SDS011;27217;51.220;5.308;2023-03-12T05:41:53;12.23;;;4.88;;
41480;SDS011;27217;51.220;5.308;2023-03-12T05:44:21;16.17;;;5.40;;
41480;SDS011;27217;51.220;5.308;2023-03-12T05:46:48;12.38;;;4.82;;
41480;SDS011;27217;51.220;5.308;2023-03-12T05:49:15;10.00;;;4.18;;
41480;SDS011;27217;51.220;5.308;2023-03-12T05:51:41;8.60;;;4.40;;
41480;SDS011;27217;51.220;5.308;2023-03-12T05:54:07;12.75;;;4.70;;
41480;SDS011;27217;51.220;5.308;2023-03-12T05:56:37;11.80;;;4.97;;
41480;SDS011;27217;51.220;5.308;2023-03-12T05:59:03;8.57;;;4.85;;
41480;SDS011;27217;51.220;5.308;2023-03-12T06:01:30;21.35;;;5.50;;
41480;SDS011;27217;51.220;5.308;2023-03-12T06:03:56;13.98;;;4.63;;
41480;SDS011;27217;51.220;5.308;2023-03-12T06:06:23;10.82;;;4.38;;
41480;SDS011;27217;51.220;5.308;2023-03-12T06:08:49;13.23;;;4.95;;
41480;SDS011;27217;51.220;5.308;2023-03-12T06:11:16;13.73;;;4.95;;
41480;SDS011;27217;51.220;5.308;2023-03-12T06:13:42;14.20;;;5.07;;
41480;SDS011;27217;51.220;5.308;2023-03-12T06:16:10;12.57;;;4.32;;
41480;SDS011;27217;51.220;5.308;2023-03-12T06:18:44;22.23;;;7.22;;
41480;SDS011;27217;51.220;5.308;2023-03-12T06:21:12;21.17;;;5.25;;
41480;SDS011;27217;51.220;5.308;2023-03-12T06:23:46;12.10;;;4.45;;
41480;SDS011;27217;51.220;5.308;2023-03-12T06:26:13;13.40;;;4.72;;
41480;SDS011;27217;51.220;5.308;2023-03-12T06:28:40;15.45;;;4.80;;
41480;SDS011;27217;51.220;5.308;2023-03-12T06:31:07;14.80;;;5.25;;
41480;SDS011;27217;51.220;5.308;2023-03-12T06:33:34;15.75;;;4.45;;
41480;SDS011;27217;51.220;5.308;2023-03-12T06:36:02;14.13;;;4.53;;
41480;SDS011;27217;51.220;5.308;2023-03-12T06:38:30;8.18;;;4.50;;
41480;SDS011;27217;51.220;5.308;2023-03-12T06:40:57;8.98;;;4.55;;
41480;SDS011;27217;51.220;5.308;2023-03-12T06:43:31;11.23;;;4.82;;
41480;SDS011;27217;51.220;5.308;2023-03-12T06:45:59;13.38;;;5.07;;
41480;SDS011;27217;51.220;5.308;2023-03-12T06:48:26;13.88;;;5.47;;
41480;SDS011;27217;51.220;5.308;2023-03-12T06:50:53;12.82;;;4.60;;
41480;SDS011;27217;51.220;5.308;2023-03-12T06:53:20;14.73;;;4.85;;
41480;SDS011;27217;51.220;5.308;2023-03-12T06:55:47;13.60;;;5.22;;
41480;SDS011;27217;51.220;5.308;2023-03-12T06:58:14;14.40;;;5.70;;
41480;SDS011;27217;51.220;5.308;2023-03-12T07:00:40;22.25;;;5.75;;
41480;SDS011;27217;51.220;5.308;2023-03-12T07:03:06;15.18;;;5.93;;
41480;SDS011;27217;51.220;5.308;2023-03-12T07:05:32;10.82;;;5.63;;
41480;SDS011;27217;51.220;5.308;2023-03-12T07:07:58;15.70;;;6.70;;
41480;SDS011;27217;51.220;5.308;2023-03-12T07:10:25;10.93;;;6.15;;
41480;SDS011;27217;51.220;5.308;2023-03-12T07:12:54;17.67;;;6.35;;
41480;SDS011;27217;51.220;5.308;2023-03-12T07:15:21;9.60;;;6.18;;
41480;SDS011;27217;51.220;5.308;2023-03-12T07:17:48;22.73;;;8.00;;
41480;SDS011;27217;51.220;5.308;2023-03-12T07:20:14;18.75;;;6.72;;
41480;SDS011;27217;51.220;5.308;2023-03-12T07:22:40;18.17;;;9.05;;
41480;SDS011;27217;51.220;5.308;2023-03-12T07:25:07;15.50;;;8.20;;
41480;SDS011;27217;51.220;5.308;2023-03-12T07:27:33;17.10;;;8.13;;
41480;SDS011;27217;51.220;5.308;2023-03-12T07:29:59;16.02;;;8.23;;
41480;SDS011;27217;51.220;5.308;2023-03-12T07:32:26;21.85;;;9.13;;
41480;SDS011;27217;51.220;5.308;2023-03-12T07:34:52;14.13;;;8.63;;
41480;SDS011;27217;51.220;5.308;2023-03-12T07:37:18;22.98;;;9.77;;
41480;SDS011;27217;51.220;5.308;2023-03-12T07:39:44;22.52;;;10.43;;
41480;SDS011;27217;51.220;5.308;2023-03-12T07:42:15;19.08;;;9.32;;
41480;SDS011;27217;51.220;5.308;2023-03-12T07:44:40;22.90;;;11.27;;
41480;SDS011;27217;51.220;5.308;2023-03-12T07:47:06;19.65;;;10.00;;
41480;SDS011;27217;51.220;5.308;2023-03-12T07:49:32;22.45;;;11.50;;
41480;SDS011;27217;51.220;5.308;2023-03-12T07:51:58;21.25;;;11.23;;
41480;SDS011;27217;51.220;5.308;2023-03-12T07:54:23;22.27;;;11.80;;
41480;SDS011;27217;51.220;5.308;2023-03-12T07:56:54;27.20;;;13.40;;
41480;SDS011;27217;51.220;5.308;2023-03-12T07:59:23;26.88;;;13.27;;
41480;SDS011;27217;51.220;5.308;2023-03-12T08:01:50;26.08;;;13.70;;
41480;SDS011;27217;51.220;5.308;2023-03-12T08:04:17;27.20;;;13.80;;
41480;SDS011;27217;51.220;5.308;2023-03-12T08:06:42;27.70;;;15.63;;
41480;SDS011;27217;51.220;5.308;2023-03-12T08:09:08;28.83;;;15.30;;
41480;SDS011;27217;51.220;5.308;2023-03-12T08:11:35;30.15;;;15.57;;
41480;SDS011;27217;51.220;5.308;2023-03-12T08:14:01;33.53;;;16.38;;
41480;SDS011;27217;51.220;5.308;2023-03-12T08:16:28;35.58;;;18.05;;
41480;SDS011;27217;51.220;5.308;2023-03-12T08:18:54;35.00;;;17.80;;
41480;SDS011;27217;51.220;5.308;2023-03-12T08:21:19;33.08;;;15.98;;
41480;SDS011;27217;51.220;5.308;2023-03-12T08:23:45;36.40;;;18.40;;
41480;SDS011;27217;51.220;5.308;2023-03-12T08:26:11;32.30;;;16.77;;
41480;SDS011;27217;51.220;5.308;2023-03-12T08:28:37;35.83;;;16.80;;
41480;SDS011;27217;51.220;5.308;2023-03-12T08:31:03;35.85;;;18.15;;
41480;SDS011;27217;51.220;5.308;2023-03-12T08:33:29;36.38;;;18.42;;
41480;SDS011;27217;51.220;5.308;2023-03-12T08:35:55;42.38;;;19.17;;
41480;SDS011;27217;51.220;5.308;2023-03-12T08:38:21;44.63;;;19.88;;
41480;SDS011;27217;51.220;5.308;2023-03-12T08:40:53;41.08;;;17.88;;
41480;SDS011;27217;51.220;5.308;2023-03-12T08:43:28;40.80;;;18.58;;
41480;SDS011;27217;51.220;5.308;2023-03-12T08:45:55;41.38;;;17.80;;
41480;SDS011;27217;51.220;5.308;2023-03-12T08:48:22;43.67;;;18.00;;
41480;SDS011;27217;51.220;5.308;2023-03-12T08:50:47;38.15;;;16.88;;
41480;SDS011;27217;51.220;5.308;2023-03-12T08:53:14;37.58;;;16.73;;
41480;SDS011;27217;51.220;5.308;2023-03-12T08:55:40;47.10;;;19.60;;
41480;SDS011;27217;51.220;5.308;2023-03-12T08:58:07;35.75;;;16.45;;
41480;SDS011;27217;51.220;5.308;2023-03-12T09:00:32;56.72;;;19.77;;
41480;SDS011;27217;51.220;5.308;2023-03-12T09:02:59;60.95;;;20.25;;
41480;SDS011;27217;51.220;5.308;2023-03-12T09:05:25;47.50;;;17.52;;
41480;SDS011;27217;51.220;5.308;2023-03-12T09:07:54;64.13;;;22.67;;
41480;SDS011;27217;51.220;5.308;2023-03-12T09:10:20;66.60;;;21.17;;
41480;SDS011;27217;51.220;5.308;2023-03-12T09:12:47;70.28;;;23.52;;
41480;SDS011;27217;51.220;5.308;2023-03-12T09:15:12;76.82;;;25.30;;
41480;SDS011;27217;51.220;5.308;2023-03-12T09:17:38;62.67;;;21.75;;
41480;SDS011;27217;51.220;5.308;2023-03-12T09:20:05;61.15;;;20.67;;
41480;SDS011;27217;51.220;5.308;2023-03-12T09:22:33;54.17;;;20.50;;
41480;SDS011;27217;51.220;5.308;2023-03-12T09:25:01;61.45;;;21.17;;
41480;SDS011;27217;51.220;5.308;2023-03-12T09:27:28;61.00;;;22.20;;
41480;SDS011;27217;51.220;5.308;2023-03-12T09:29:54;62.83;;;21.08;;
41480;SDS011;27217;51.220;5.308;2023-03-12T09:32:19;75.20;;;22.08;;
41480;SDS011;27217;51.220;5.308;2023-03-12T09:34:45;67.97;;;22.77;;
41480;SDS011;27217;51.220;5.308;2023-03-12T09:37:11;63.85;;;23.13;;
41480;SDS011;27217;51.220;5.308;2023-03-12T09:39:37;73.88;;;23.23;;
41480;SDS011;27217;51.220;5.308;2023-03-12T09:42:04;67.88;;;22.65;;
41480;SDS011;27217;51.220;5.308;2023-03-12T09:44:38;76.60;;;24.92;;
41480;SDS011;27217;51.220;5.308;2023-03-12T09:47:09;71.95;;;19.90;;
41480;SDS011;27217;51.220;5.308;2023-03-12T09:49:52;89.00;;;22.10;;
41480;SDS011;27217;51.220;5.308;2023-03-12T09:52:44;66.45;;;20.85;;
41480;SDS011;27217;51.220;5.308;2023-03-12T09:55:20;67.85;;;20.38;;
41480;SDS011;27217;51.220;5.308;2023-03-12T09:57:48;64.32;;;20.02;;
41480;SDS011;27217;51.220;5.308;2023-03-12T10:00:16;63.78;;;21.33;;
41480;SDS011;27217;51.220;5.308;2023-03-12T10:07:58;63.88;;;20.63;;
41480;SDS011;27217;51.220;5.308;2023-03-12T10:10:45;72.93;;;17.98;;
41480;SDS011;27217;51.220;5.308;2023-03-12T10:13:38;74.43;;;19.50;;
41480;SDS011;27217;51.220;5.308;2023-03-12T10:16:55;64.80;;;17.20;;
41480;SDS011;27217;51.220;5.308;2023-03-12T10:19:10;68.43;;;15.30;;
41480;SDS011;27217;51.220;5.308;2023-03-12T10:21:53;75.25;;;17.83;;
41480;SDS011;27217;51.220;5.308;2023-03-12T10:26:58;64.85;;;15.77;;
41480;SDS011;27217;51.220;5.308;2023-03-12T10:29:29;83.03;;;16.17;;
41480;SDS011;27217;51.220;5.308;2023-03-12T10:32:03;53.55;;;14.35;;
41480;SDS011;27217;51.220;5.308;2023-03-12T10:34:42;62.28;;;13.63;;
41480;SDS011;27217;51.220;5.308;2023-03-12T10:37:21;58.17;;;13.35;;
41480;SDS011;27217;51.220;5.308;2023-03-12T10:39:50;63.92;;;13.73;;
41480;SDS011;27217;51.220;5.308;2023-03-12T10:42:20;55.50;;;12.88;;
41480;SDS011;27217;51.220;5.308;2023-03-12T10:44:52;43.85;;;12.45;;
41480;SDS011;27217;51.220;5.308;2023-03-12T10:47:39;42.72;;;11.90;;
41480;SDS011;27217;51.220;5.308;2023-03-12T10:52:37;56.28;;;11.65;;
41480;SDS011;27217;51.220;5.308;2023-03-12T10:55:22;53.05;;;9.98;;
41480;SDS011;27217;51.220;5.308;2023-03-12T10:57:50;44.20;;;9.85;;
41480;SDS011;27217;51.220;5.308;2023-03-12T11:00:20;42.67;;;8.55;;
41480;SDS011;27217;51.220;5.308;2023-03-12T11:02:56;48.65;;;10.88;;
41480;SDS011;27217;51.220;5.308;2023-03-12T11:05:46;40.80;;;7.50;;
41480;SDS011;27217;51.220;5.308;2023-03-12T11:08:25;39.17;;;7.47;;
41480;SDS011;27217;51.220;5.308;2023-03-12T11:11:14;37.22;;;6.82;;
41480;SDS011;27217;51.220;5.308;2023-03-12T11:14:07;36.42;;;7.90;;
41480;SDS011;27217;51.220;5.308;2023-03-12T11:16:39;39.20;;;8.75;;
41480;SDS011;27217;51.220;5.308;2023-03-12T11:19:05;46.72;;;8.55;;
41480;SDS011;27217;51.220;5.308;2023-03-12T11:21:32;39.60;;;6.90;;
41480;SDS011;27217;51.220;5.308;2023-03-12T11:24:08;45.97;;;6.68;;
41480;SDS011;27217;51.220;5.308;2023-03-12T11:26:50;39.15;;;6.78;;
41480;SDS011;27217;51.220;5.308;2023-03-12T11:29:27;38.55;;;8.82;;
41480;SDS011;27217;51.220;5.308;2023-03-12T11:34:35;44.40;;;6.43;;
41480;SDS011;27217;51.220;5.308;2023-03-12T11:48:25;37.50;;;7.15;;
41480;SDS011;27217;51.220;5.308;2023-03-12T11:56:25;39.03;;;5.90;;
41480;SDS011;27217;51.220;5.308;2023-03-12T12:07:01;40.05;;;7.13;;
41480;SDS011;27217;51.220;5.308;2023-03-12T12:09:53;30.42;;;6.13;;
41480;SDS011;27217;51.220;5.308;2023-03-12T12:15:32;36.83;;;5.55;;
41480;SDS011;27217;51.220;5.308;2023-03-12T12:21:20;24.75;;;4.60;;
41480;SDS011;27217;51.220;5.308;2023-03-12T12:26:59;39.30;;;5.72;;
41480;SDS011;27217;51.220;5.308;2023-03-12T12:29:48;29.45;;;4.97;;
41480;SDS011;27217;51.220;5.308;2023-03-12T12:32:57;30.30;;;4.78;;
41480;SDS011;27217;51.220;5.308;2023-03-12T12:38:13;30.77;;;5.55;;
41480;SDS011;27217;51.220;5.308;2023-03-12T12:41:09;39.10;;;6.05;;
41480;SDS011;27217;51.220;5.308;2023-03-12T12:44:05;44.28;;;7.65;;
41480;SDS011;27217;51.220;5.308;2023-03-12T12:47:04;32.30;;;6.78;;
41480;SDS011;27217;51.220;5.308;2023-03-12T12:49:47;26.50;;;5.32;;
41480;SDS011;27217;51.220;5.308;2023-03-12T12:52:18;36.72;;;5.85;;
41480;SDS011;27217;51.220;5.308;2023-03-12T13:03:16;33.17;;;5.43;;
41480;SDS011;27217;51.220;5.308;2023-03-12T13:13:42;29.60;;;4.43;;
41480;SDS011;27217;51.220;5.308;2023-03-12T13:16:25;36.92;;;6.35;;
41480;SDS011;27217;51.220;5.308;2023-03-12T13:19:18;35.58;;;6.63;;
41480;SDS011;27217;51.220;5.308;2023-03-12T13:24:55;35.00;;;5.18;;
41480;SDS011;27217;51.220;5.308;2023-03-12T13:27:35;39.90;;;5.10;;
41480;SDS011;27217;51.220;5.308;2023-03-12T13:48:29;40.75;;;5.40;;
41480;SDS011;27217;51.220;5.308;2023-03-12T13:50:58;45.30;;;6.53;;
41480;SDS011;27217;51.220;5.308;2023-03-12T13:53:35;42.97;;;5.80;;
41480;SDS011;27217;51.220;5.308;2023-03-12T13:56:07;36.15;;;5.57;;
41480;SDS011;27217;51.220;5.308;2023-03-12T13:58:41;34.90;;;5.38;;
41480;SDS011;27217;51.220;5.308;2023-03-12T14:01:17;36.95;;;6.43;;
41480;SDS011;27217;51.220;5.308;2023-03-12T14:03:47;38.83;;;6.30;;
41480;SDS011;27217;51.220;5.308;2023-03-12T14:06:20;32.65;;;4.88;;
41480;SDS011;27217;51.220;5.308;2023-03-12T14:11:37;25.27;;;6.30;;
41480;SDS011;27217;51.220;5.308;2023-03-12T14:14:16;34.80;;;5.10;;
41480;SDS011;27217;51.220;5.308;2023-03-12T14:17:09;38.72;;;5.00;;
41480;SDS011;27217;51.220;5.308;2023-03-12T14:19:42;32.30;;;5.32;;
41480;SDS011;27217;51.220;5.308;2023-03-12T14:22:15;38.33;;;5.40;;
41480;SDS011;27217;51.220;5.308;2023-03-12T14:24:47;26.73;;;4.35;;
41480;SDS011;27217;51.220;5.308;2023-03-12T14:27:27;30.73;;;4.25;;
41480;SDS011;27217;51.220;5.308;2023-03-12T14:29:56;34.83;;;6.03;;
41480;SDS011;27217;51.220;5.308;2023-03-12T14:32:29;29.10;;;4.75;;
41480;SDS011;27217;51.220;5.308;2023-03-12T14:37:42;35.92;;;3.97;;
41480;SDS011;27217;51.220;5.308;2023-03-12T14:40:24;26.05;;;3.92;;
41480;SDS011;27217;51.220;5.308;2023-03-12T14:43:18;33.33;;;6.60;;
41480;SDS011;27217;51.220;5.308;2023-03-12T14:45:44;36.38;;;5.57;;
41480;SDS011;27217;51.220;5.308;2023-03-12T14:48:10;44.85;;;6.22;;
41480;SDS011;27217;51.220;5.308;2023-03-12T14:50:37;27.48;;;5.10;;
41480;SDS011;27217;51.220;5.308;2023-03-12T14:53:12;39.83;;;5.00;;
41480;SDS011;27217;51.220;5.308;2023-03-12T14:55:44;37.20;;;5.30;;
41480;SDS011;27217;51.220;5.308;2023-03-12T14:58:16;29.95;;;4.25;;
41480;SDS011;27217;51.220;5.308;2023-03-12T15:00:44;33.83;;;5.65;;
41480;SDS011;27217;51.220;5.308;2023-03-12T15:03:19;35.35;;;5.47;;
41480;SDS011;27217;51.220;5.308;2023-03-12T15:05:46;37.38;;;6.90;;
41480;SDS011;27217;51.220;5.308;2023-03-12T15:08:12;36.58;;;6.18;;
41480;SDS011;27217;51.220;5.308;2023-03-12T15:10:38;29.70;;;4.47;;
41480;SDS011;27217;51.220;5.308;2023-03-12T15:13:04;33.60;;;4.72;;
41480;SDS011;27217;51.220;5.308;2023-03-12T15:15:35;36.70;;;5.22;;
41480;SDS011;27217;51.220;5.308;2023-03-12T15:18:28;34.45;;;4.78;;
41480;SDS011;27217;51.220;5.308;2023-03-12T15:20:56;34.63;;;5.03;;
41480;SDS011;27217;51.220;5.308;2023-03-12T15:23:25;36.88;;;5.32;;
41480;SDS011;27217;51.220;5.308;2023-03-12T15:26:10;36.83;;;7.10;;
41480;SDS011;27217;51.220;5.308;2023-03-12T15:29:31;46.50;;;5.70;;
41480;SDS011;27217;51.220;5.308;2023-03-12T15:31:51;41.63;;;5.32;;
41480;SDS011;27217;51.220;5.308;2023-03-12T15:34:32;38.30;;;5.60;;
41480;SDS011;27217;51.220;5.308;2023-03-12T15:37:01;27.80;;;4.13;;
41480;SDS011;27217;51.220;5.308;2023-03-12T15:39:46;34.92;;;4.53;;
41480;SDS011;27217;51.220;5.308;2023-03-12T15:42:15;40.15;;;6.07;;
41480;SDS011;27217;51.220;5.308;2023-03-12T15:44:44;37.25;;;6.45;;
41480;SDS011;27217;51.220;5.308;2023-03-12T15:47:19;28.40;;;4.97;;
41480;SDS011;27217;51.220;5.308;2023-03-12T15:49:52;37.25;;;4.13;;
41480;SDS011;27217;51.220;5.308;2023-03-12T15:52:32;35.58;;;6.22;;
41480;SDS011;27217;51.220;5.308;2023-03-12T15:57:51;32.50;;;5.03;;
41480;SDS011;27217;51.220;5.308;2023-03-12T16:00:19;29.40;;;4.30;;
41480;SDS011;27217;51.220;5.308;2023-03-12T16:02:55;30.27;;;4.80;;
41480;SDS011;27217;51.220;5.308;2023-03-12T16:05:27;30.67;;;5.20;;
41480;SDS011;27217;51.220;5.308;2023-03-12T16:10:45;39.85;;;5.45;;
41480;SDS011;27217;51.220;5.308;2023-03-12T16:13:14;30.10;;;4.90;;
41480;SDS011;27217;51.220;5.308;2023-03-12T16:15:41;44.97;;;6.43;;
41480;SDS011;27217;51.220;5.308;2023-03-12T16:18:25;28.48;;;5.53;;
41480;SDS011;27217;51.220;5.308;2023-03-12T16:20:58;28.83;;;4.38;;
41480;SDS011;27217;51.220;5.308;2023-03-12T16:23:24;37.67;;;5.13;;
41480;SDS011;27217;51.220;5.308;2023-03-12T16:25:50;38.90;;;4.80;;
41480;SDS011;27217;51.220;5.308;2023-03-12T16:28:20;34.00;;;5.47;;
41480;SDS011;27217;51.220;5.308;2023-03-12T16:30:47;23.90;;;4.65;;
41480;SDS011;27217;51.220;5.308;2023-03-12T16:33:14;33.15;;;5.88;;
41480;SDS011;27217;51.220;5.308;2023-03-12T16:35:42;27.77;;;4.55;;